Time;durP1;ratioP1;P1;durP2;ratioP2;P2;SDS_P1;SDS_P2;PMS_P1;PMS_P2;Temp;Humidity;BMP_temperature;BMP_pressure;BME280_temperature;BME280_humidity;BME280_pressure;Samples;Min_cycle;Max_cycle;Signal;HPM_P1;HPM_P2
2022/08/09 00:00:18;;;;;;;4.72;1.20;;;18.70;86.80;;;18.04;100.00;98178.03;4936062;29;20048;-65
2022/08/09 00:02:45;;;;;;;2.83;0.90;;;18.50;86.90;;;18.07;100.00;98176.09;4938897;29;20098;-65
2022/08/09 00:05:20;;;;;;;3.85;0.80;;;18.50;86.80;;;17.91;100.00;98173.59;4939500;29;20469;-65
2022/08/09 00:08:09;;;;;;;2.92;0.88;;;18.50;87.10;;;17.85;100.00;98173.13;4951584;28;20074;-65
2022/08/09 00:10:58;;;;;;;1.45;0.80;;;18.40;87.30;;;17.78;100.00;98173.47;4953125;28;20044;-65
2022/08/09 00:13:26;;;;;;;4.85;1.00;;;18.30;87.60;;;17.77;100.00;98174.41;4940298;28;20073;-65
2022/08/09 00:15:57;;;;;;;1.67;1.00;;;18.20;87.80;;;17.80;100.00;98169.91;4940206;28;20139;-65
2022/08/09 00:18:30;;;;;;;3.97;0.70;;;18.30;87.80;;;17.77;100.00;98169.16;4937450;29;20137;-64
2022/08/09 00:21:03;;;;;;;1.88;0.70;;;18.30;87.80;;;17.75;100.00;98168.41;4939266;29;20056;-65
2022/08/09 00:23:33;;;;;;;6.47;1.00;;;18.20;87.90;;;17.70;100.00;98161.78;4949897;28;20388;-65
2022/08/09 00:26:21;;;;;;;2.78;0.88;;;18.20;88.30;;;17.75;100.00;98170.19;4942719;28;20051;-65
2022/08/09 00:29:01;;;;;;;2.45;1.05;;;18.20;88.50;;;17.77;100.00;98161.28;4955264;28;20091;-65
2022/08/09 00:31:30;;;;;;;3.63;0.75;;;18.20;88.40;;;17.68;100.00;98164.50;4938848;29;20575;-65
2022/08/09 00:34:17;;;;;;;4.57;0.85;;;18.10;88.50;;;17.60;100.00;98158.84;4945351;28;20142;-65
2022/08/09 00:36:48;;;;;;;1.60;0.70;;;18.10;88.80;;;17.36;100.00;98155.97;4941930;29;20440;-65
2022/08/09 00:39:17;;;;;;;4.45;1.02;;;18.00;89.30;;;17.43;100.00;98159.06;4943989;28;20047;-65
2022/08/09 00:42:05;;;;;;;4.28;0.80;;;18.00;89.40;;;17.24;100.00;98154.94;4939871;29;20058;-65
2022/08/09 00:44:52;;;;;;;4.78;1.02;;;17.90;89.80;;;17.17;100.00;98160.63;4937244;29;20055;-65
2022/08/09 00:47:20;;;;;;;3.85;0.93;;;17.80;90.10;;;17.12;100.00;98155.66;4943218;29;20054;-65
2022/08/09 00:49:52;;;;;;;2.58;1.00;;;17.70;90.30;;;17.17;100.00;98155.38;4942786;28;20054;-65
2022/08/09 00:52:23;;;;;;;2.55;0.93;;;17.70;90.40;;;17.19;100.00;98151.72;4943015;29;20047;-64
2022/08/09 00:55:00;;;;;;;3.30;0.95;;;17.70;90.50;;;17.13;100.00;98157.38;4944216;28;20137;-64
2022/08/09 00:57:30;;;;;;;3.15;1.10;;;17.70;90.50;;;16.98;100.00;98155.66;4940622;28;20054;-64
2022/08/09 01:00:09;;;;;;;3.55;0.70;;;17.60;90.90;;;16.99;100.00;98152.09;4942870;29;20087;-64
2022/08/09 01:03:15;;;;;;;3.95;1.00;;;17.50;90.80;;;16.80;100.00;98155.78;4953825;28;20060;-64
2022/08/09 01:05:58;;;;;;;2.33;0.82;;;17.50;91.00;;;16.86;100.00;98160.69;4951441;28;20075;-63
2022/08/09 01:09:14;;;;;;;4.43;0.95;;;17.40;91.20;;;16.84;100.00;98166.97;4952505;28;20175;-65
2022/08/09 01:12:05;;;;;;;4.13;1.15;;;17.40;91.30;;;16.85;100.00;98156.34;4955194;28;20130;-65
2022/08/09 01:14:42;;;;;;;1.77;0.85;;;17.40;91.40;;;16.70;100.00;98158.09;4957019;28;20058;-65
2022/08/09 01:17:20;;;;;;;1.70;0.77;;;17.30;91.70;;;16.64;100.00;98168.06;4940130;28;20057;-65
2022/08/09 01:20:05;;;;;;;2.22;0.90;;;17.20;91.80;;;16.51;100.00;98165.31;4948751;28;20068;-65
2022/08/09 01:22:45;;;;;;;4.13;0.90;;;17.10;92.10;;;16.49;100.00;98162.78;4938620;29;20449;-65
2022/08/09 01:25:29;;;;;;;4.82;0.82;;;17.10;92.20;;;16.37;100.00;98168.72;4952403;28;20047;-65
2022/08/09 01:27:59;;;;;;;2.60;0.95;;;17.00;92.40;;;16.27;100.00;98163.16;4935915;29;20095;-65
2022/08/09 01:30:29;;;;;;;2.42;0.80;;;16.90;92.60;;;16.23;100.00;98174.72;4953810;28;20130;-65
2022/08/09 01:33:02;;;;;;;2.28;0.93;;;16.90;92.90;;;16.25;100.00;98166.78;4952075;28;20109;-65
2022/08/09 01:35:50;;;;;;;1.65;0.90;;;;;;;16.16;100.00;98169.94;4938441;28;20054;-65
2022/08/09 01:38:27;;;;;;;4.13;0.82;;;16.80;92.90;;;16.10;100.00;98166.72;4942014;28;20048;-65
2022/08/09 01:41:05;;;;;;;5.25;0.95;;;16.70;93.40;;;15.99;100.00;98170.88;4949550;28;20062;-64
2022/08/09 01:43:43;;;;;;;2.75;1.10;;;16.60;93.60;;;15.94;100.00;98168.50;4954989;28;20086;-65
2022/08/09 01:46:26;;;;;;;3.65;1.00;;;16.60;93.80;;;15.90;100.00;98169.59;4957657;28;20527;-64
2022/08/09 01:49:01;;;;;;;2.00;0.95;;;16.50;93.90;;;15.83;100.00;98168.25;4953613;28;20059;-64
2022/08/09 01:51:46;;;;;;;4.05;1.00;;;16.40;94.20;;;15.76;100.00;98172.97;4956484;28;20051;-64
2022/08/09 01:54:27;;;;;;;2.10;1.00;;;16.40;94.30;;;15.72;100.00;98176.69;4954375;28;20040;-64
2022/08/09 01:57:13;;;;;;;2.65;1.05;;;16.30;94.50;;;15.52;100.00;98180.31;4954128;28;20051;-64
2022/08/09 01:59:45;;;;;;;3.97;0.93;;;16.20;95.00;;;15.39;100.00;98182.72;4953233;28;20044;-64
2022/08/09 02:02:24;;;;;;;3.85;0.98;;;16.10;95.40;;;15.38;100.00;98185.44;4941031;28;20051;-65
2022/08/09 02:05:02;;;;;;;3.58;1.02;;;16.00;95.70;;;15.45;100.00;98186.81;4944210;28;20083;-64
2022/08/09 02:07:56;;;;;;;1.58;0.90;;;16.10;95.90;;;15.36;100.00;98193.38;4957186;28;20075;-65
2022/08/09 02:10:48;;;;;;;2.88;1.00;;;16.00;96.10;;;15.31;100.00;98186.69;4950969;28;20525;-65
2022/08/09 02:13:20;;;;;;;1.85;0.90;;;16.00;96.30;;;15.20;100.00;98189.84;4954562;28;20051;-65
2022/08/09 02:16:04;;;;;;;2.90;1.10;;;15.90;96.60;;;15.03;100.00;98199.41;4948556;28;20477;-64
2022/08/09 02:18:33;;;;;;;5.20;1.10;;;15.80;96.90;;;14.91;100.00;98194.78;4955048;28;20143;-65
2022/08/09 02:21:12;;;;;;;2.97;1.05;;;15.70;97.30;;;14.82;100.00;98203.97;4938997;28;20552;-64
2022/08/09 02:23:53;;;;;;;2.67;0.93;;;15.50;97.70;;;14.64;100.00;98197.88;4951801;28;20584;-64
2022/08/09 02:26:22;;;;;;;;;;;15.50;98.20;;;14.53;100.00;98194.91;4957258;28;20059;-64
2022/08/09 02:29:00;;;;;;;5.57;0.82;;;15.30;98.60;;;14.43;100.00;98197.09;4951553;28;20017;-64
2022/08/09 02:31:34;;;;;;;2.97;1.00;;;15.20;99.20;;;14.50;100.00;98202.03;4939515;28;20063;-64
2022/08/09 02:34:11;;;;;;;4.90;1.30;;;15.20;99.60;;;14.44;100.00;98201.41;4954292;28;20135;-64
2022/08/09 02:37:02;;;;;;;4.18;1.10;;;15.10;99.90;;;14.43;100.00;98197.09;4946288;28;20060;-65
2022/08/09 02:39:37;;;;;;;1.92;0.73;;;15.10;99.90;;;14.42;100.00;98199.81;4955918;28;20102;-65
2022/08/09 02:42:17;;;;;;;1.80;0.98;;;15.10;99.90;;;14.36;100.00;98206.16;4944314;28;20102;-64
2022/08/09 02:44:54;;;;;;;1.73;1.00;;;15.10;99.90;;;14.35;100.00;98208.84;4953904;28;20065;-64
2022/08/09 02:47:23;;;;;;;3.60;1.00;;;15.10;99.90;;;14.24;100.00;98209.34;4959329;28;20073;-65
2022/08/09 02:50:03;;;;;;;2.38;0.90;;;15.00;99.90;;;14.27;100.00;98209.19;4957477;28;20054;-64
2022/08/09 02:52:43;;;;;;;2.38;0.80;;;15.00;99.90;;;14.16;100.00;98208.84;4949660;28;20050;-64
2022/08/09 02:55:16;;;;;;;2.45;1.00;;;14.90;99.90;;;14.12;100.00;98207.34;4957642;28;20106;-64
2022/08/09 02:57:48;;;;;;;;;;;14.90;99.90;;;14.13;100.00;98202.03;4944112;28;20553;-64
2022/08/09 03:00:38;;;;;;;4.32;1.40;;;14.80;99.90;;;14.21;100.00;98199.91;4940007;28;19926;-64
2022/08/09 03:03:25;;;;;;;2.30;1.00;;;14.90;99.90;;;14.27;100.00;98196.16;4954320;28;20070;-64
2022/08/09 03:06:14;;;;;;;4.55;1.10;;;14.90;99.90;;;14.38;100.00;98199.09;4952182;28;20047;-64
2022/08/09 03:08:44;;;;;;;2.35;1.00;;;15.00;99.90;;;14.37;100.00;98196.56;4956404;28;20147;-64
2022/08/09 03:11:17;;;;;;;2.55;0.82;;;15.00;99.90;;;14.37;100.00;98196.56;4954775;28;20052;-64
2022/08/09 03:14:05;;;;;;;;;;;15.00;99.90;;;14.37;100.00;98191.34;4956179;28;20051;-64
2022/08/09 03:16:33;;;;;;;2.80;1.00;;;15.00;99.90;;;14.32;100.00;98190.69;4938735;29;19961;-64
2022/08/09 03:19:08;;;;;;;2.05;0.82;;;15.00;99.90;;;14.35;100.00;98191.41;4956271;28;20044;-64
2022/08/09 03:21:56;;;;;;;2.97;0.90;;;15.00;99.90;;;14.41;100.00;98187.66;4949886;28;20052;-64
2022/08/09 03:24:24;;;;;;;4.38;0.90;;;15.00;99.90;;;14.52;100.00;98187.13;4956344;28;20600;-64
2022/08/09 03:27:12;;;;;;;2.83;0.77;;;15.00;99.90;;;14.58;100.00;98195.56;4937993;28;20051;-64
2022/08/09 03:29:43;;;;;;;2.10;0.80;;;15.10;99.90;;;14.59;100.00;98191.16;4938101;29;20090;-64
2022/08/09 03:32:30;;;;;;;3.65;0.80;;;15.20;99.90;;;14.60;100.00;98188.50;4954564;28;20125;-64
2022/08/09 03:34:59;;;;;;;4.22;1.02;;;15.20;99.90;;;14.58;100.00;98194.72;4955940;28;20106;-64
2022/08/09 03:37:27;;;;;;;3.75;1.02;;;15.20;99.90;;;14.63;100.00;98190.09;4942477;28;20070;-64
2022/08/09 03:40:15;;;;;;;2.72;1.10;;;15.20;99.90;;;14.59;100.00;98201.63;4941281;28;20070;-64
2022/08/09 03:42:45;;;;;;;1.85;0.80;;;15.20;99.90;;;14.59;100.00;98199.00;4940282;28;20047;-64
2022/08/09 03:45:12;;;;;;;4.25;1.20;;;15.20;99.90;;;14.57;100.00;98201.72;4959253;28;20100;-64
2022/08/09 03:47:42;;;;;;;3.17;0.80;;;15.10;99.90;;;14.56;100.00;98202.63;4939001;28;20047;-64
2022/08/09 03:50:13;;;;;;;3.05;0.90;;;15.10;99.90;;;14.49;100.00;98203.81;4957144;28;20555;-64
2022/08/09 03:53:04;;;;;;;2.22;0.98;;;15.10;99.90;;;14.47;100.00;98202.19;4940211;28;20054;-64
2022/08/09 03:55:32;;;;;;;5.43;0.98;;;15.10;99.90;;;14.44;100.00;98208.41;4953316;28;20507;-64
2022/08/09 03:58:07;;;;;;;3.60;0.98;;;15.10;99.90;;;14.42;100.00;98215.47;4939613;28;20087;-64
2022/08/09 04:00:43;;;;;;;2.95;0.90;;;15.00;99.90;;;14.34;100.00;98215.81;4957137;28;20083;-64
2022/08/09 04:03:11;;;;;;;4.22;1.02;;;15.00;99.90;;;14.33;100.00;98211.53;4937813;28;20134;-64
2022/08/09 04:05:58;;;;;;;4.82;0.95;;;15.00;99.90;;;14.32;100.00;98214.22;4954078;28;20066;-64
2022/08/09 04:08:33;;;;;;;3.15;0.98;;;14.90;99.90;;;14.27;100.00;98217.03;4953916;28;20055;-64
2022/08/09 04:11:01;;;;;;;2.17;1.00;;;14.90;99.90;;;14.28;100.00;98221.34;4937689;29;20048;-65
2022/08/09 04:13:28;;;;;;;2.10;0.80;;;14.90;99.90;;;14.31;100.00;98230.81;4940281;28;20799;-66
2022/08/09 04:16:15;;;;;;;1.70;0.80;;;14.90;99.90;;;14.20;100.00;98232.16;4940108;28;20050;-65
2022/08/09 04:18:47;;;;;;;1.58;0.82;;;14.90;99.90;;;14.21;100.00;98230.41;4941122;28;20059;-65
2022/08/09 04:21:17;;;;;;;2.88;0.90;;;14.90;99.90;;;14.17;100.00;98234.06;4957763;28;20079;-65
2022/08/09 04:23:45;;;;;;;5.72;1.40;;;14.90;99.90;;;14.14;100.00;98231.56;4940922;28;20401;-65
2022/08/09 04:26:19;;;;;;;3.08;1.10;;;14.80;99.90;;;14.25;100.00;98228.47;4939965;28;20483;-65
2022/08/09 04:28:49;;;;;;;1.67;0.70;;;14.90;99.90;;;14.26;100.00;98231.03;4938823;28;20146;-65
2022/08/09 04:31:16;;;;;;;4.00;1.83;;;14.90;99.90;;;14.30;100.00;98223.88;4942597;28;20150;-64
2022/08/09 04:33:43;;;;;;;3.10;0.80;;;15.00;99.90;;;14.33;100.00;98234.19;4935949;28;20075;-65
2022/08/09 04:36:21;;;;;;;2.65;0.90;;;15.00;99.90;;;14.32;100.00;98228.13;4953106;28;20087;-64
2022/08/09 04:38:50;;;;;;;2.85;0.90;;;15.00;99.90;;;14.29;100.00;98232.66;4958998;28;20059;-65
2022/08/09 04:41:18;;;;;;;1.90;0.90;;;15.00;99.90;;;14.27;100.00;98229.25;4937724;28;20829;-65
2022/08/09 04:43:53;;;;;;;2.17;1.00;;;15.00;99.90;;;14.35;100.00;98234.97;4942675;28;20610;-65
2022/08/09 04:46:33;;;;;;;3.70;0.90;;;15.00;99.90;;;14.35;100.00;98240.19;4938697;29;20075;-66
2022/08/09 04:49:20;;;;;;;3.00;0.70;;;15.00;99.90;;;14.33;100.00;98242.03;4942942;28;20436;-63
2022/08/09 04:52:06;;;;;;;2.55;0.95;;;15.00;99.90;;;14.43;100.00;98236.28;4945021;28;20157;-64
2022/08/09 04:54:35;;;;;;;3.03;1.05;;;15.10;99.90;;;14.47;100.00;98242.22;4937943;28;20062;-65
2022/08/09 04:57:03;;;;;;;3.85;0.90;;;15.10;99.90;;;14.35;100.00;98242.81;4942084;28;20059;-64
2022/08/09 04:59:30;;;;;;;1.83;0.80;;;15.10;99.90;;;14.41;100.00;98250.31;4939054;29;20052;-65
2022/08/09 05:01:57;;;;;;;2.38;0.90;;;15.10;99.90;;;14.46;100.00;98252.72;4943693;28;20052;-65
2022/08/09 05:04:29;;;;;;;2.92;0.80;;;15.10;99.90;;;14.46;100.00;98260.56;4950371;28;20051;-65
2022/08/09 05:06:57;;;;;;;3.33;0.90;;;15.20;99.90;;;14.54;100.00;98261.94;4936122;28;20107;-64
2022/08/09 05:09:24;;;;;;;2.97;0.80;;;15.20;99.90;;;14.60;100.00;98255.56;4944724;28;20043;-64
2022/08/09 05:12:11;;;;;;;4.90;0.98;;;15.20;99.90;;;14.68;100.00;98263.03;4935831;29;20409;-64
2022/08/09 05:14:38;;;;;;;3.88;0.90;;;15.40;99.90;;;14.77;100.00;98265.19;4940279;28;20131;-64
2022/08/09 05:17:07;;;;;;;2.70;0.80;;;15.40;99.90;;;14.93;100.00;98260.91;4930729;28;20052;-63
2022/08/09 05:19:54;;;;;;;3.03;1.02;;;15.50;99.90;;;14.91;100.00;98267.13;4938898;28;20477;-64
2022/08/09 05:22:24;;;;;;;4.35;1.05;;;15.60;99.90;;;15.01;100.00;98264.00;4935884;29;20111;-64
2022/08/09 05:25:13;;;;;;;3.08;1.02;;;15.70;99.90;;;15.18;100.00;98268.38;4937918;28;20054;-64
2022/08/09 05:27:41;;;;;;;4.95;1.88;;;15.80;99.90;;;15.22;100.00;98263.84;4936486;28;20059;-64
2022/08/09 05:30:14;;;;;;;3.22;0.98;;;15.90;99.90;;;15.41;100.00;98263.75;4938148;28;20043;-64
2022/08/09 05:32:45;;;;;;;2.95;0.77;;;16.10;99.90;;;15.58;100.00;98260.28;4940149;28;20091;-64
2022/08/09 05:35:19;;;;;;;2.10;0.80;;;;;;;15.67;100.00;98258.03;4942632;28;20044;-64
2022/08/09 05:37:49;;;;;;;2.67;0.90;;;16.40;99.90;;;15.87;100.00;98261.38;4941127;28;20135;-64
2022/08/09 05:40:17;;;;;;;4.07;1.20;;;16.60;99.90;;;15.97;100.00;98264.38;4940931;28;20052;-64
2022/08/09 05:42:45;;;;;;;2.00;0.80;;;16.70;99.90;;;16.13;100.00;98253.91;4939166;28;20508;-64
2022/08/09 05:45:12;;;;;;;3.58;1.10;;;16.90;99.90;;;16.17;100.00;98256.28;4942162;28;20141;-64
2022/08/09 05:47:41;;;;;;;3.75;1.00;;;17.00;99.90;;;16.39;100.00;98255.94;4950088;28;20083;-64
2022/08/09 05:50:22;;;;;;;2.28;0.80;;;17.10;99.90;;;16.57;100.00;98256.69;4954476;28;20131;-64
2022/08/09 05:53:12;;;;;;;3.22;1.05;;;17.30;99.90;;;16.72;100.00;98257.63;4943333;28;20056;-64
2022/08/09 05:55:57;;;;;;;4.82;1.15;;;17.50;99.90;;;16.92;100.00;98256.50;4941685;28;20069;-64
2022/08/09 05:58:24;;;;;;;6.82;1.10;;;17.70;99.90;;;17.11;100.00;98251.03;4939747;28;20151;-64
2022/08/09 06:00:52;;;;;;;2.42;1.00;;;17.80;99.50;;;17.23;100.00;98252.94;4937052;28;20051;-64
2022/08/09 06:03:19;;;;;;;4.10;1.17;;;18.00;99.40;;;17.29;100.00;98251.75;4939185;28;20083;-65
2022/08/09 06:05:48;;;;;;;2.10;1.00;;;18.10;98.80;;;17.41;100.00;98260.66;4940448;28;20055;-65
2022/08/09 06:08:23;;;;;;;4.05;1.20;;;18.20;98.20;;;17.49;100.00;98253.16;4939865;28;20121;-64
2022/08/09 06:10:55;;;;;;;3.95;1.40;;;18.30;98.00;;;17.53;100.00;98263.38;4942967;28;20126;-64
2022/08/09 06:13:23;;;;;;;2.28;0.85;;;18.40;97.50;;;17.64;100.00;98260.13;4937374;28;20048;-64
2022/08/09 06:15:51;;;;;;;2.90;1.00;;;18.40;97.30;;;17.78;100.00;98260.13;4938149;28;20057;-64
2022/08/09 06:18:22;;;;;;;3.80;1.20;;;18.60;97.30;;;17.90;100.00;98268.22;4944365;28;20055;-64
2022/08/09 06:20:56;;;;;;;1.85;0.90;;;18.70;97.30;;;18.01;100.00;98264.94;4938198;28;20139;-64
2022/08/09 06:23:29;;;;;;;4.38;0.98;;;18.80;96.60;;;18.09;100.00;98267.94;4939711;28;20059;-64
2022/08/09 06:26:18;;;;;;;4.17;1.10;;;18.90;96.70;;;18.26;100.00;98264.25;4941416;28;20055;-64
2022/08/09 06:28:52;;;;;;;4.13;1.13;;;19.00;96.20;;;18.27;100.00;98266.78;4958383;28;20491;-65
2022/08/09 06:31:32;;;;;;;4.22;1.00;;;19.20;96.10;;;18.33;100.00;98271.63;4954950;28;20565;-63
2022/08/09 06:34:20;;;;;;;2.45;1.13;;;19.30;95.70;;;18.50;100.00;98269.75;4936648;28;20367;-63
2022/08/09 06:36:50;;;;;;;3.50;0.95;;;19.50;95.90;;;18.57;100.00;98286.81;4942011;29;20055;-63
2022/08/09 06:39:30;;;;;;;4.30;0.88;;;19.50;95.30;;;18.66;100.00;98272.25;4940446;28;20058;-63
2022/08/09 06:42:19;;;;;;;3.45;1.00;;;19.70;95.00;;;18.75;100.00;98276.91;4945358;28;20055;-63
2022/08/09 06:44:54;;;;;;;3.30;0.93;;;19.70;94.70;;;18.78;100.00;98280.19;4941006;28;20078;-63
2022/08/09 06:47:23;;;;;;;5.03;1.08;;;19.80;94.60;;;18.91;100.00;98282.03;4958075;28;20283;-63
2022/08/09 06:49:52;;;;;;;2.22;0.90;;;19.90;94.30;;;19.13;100.00;98286.72;4959600;28;20141;-63
2022/08/09 06:52:44;;;;;;;5.22;1.95;;;20.00;94.30;;;19.19;100.00;98286.31;4943981;28;20466;-64
2022/08/09 06:55:17;;;;;;;3.50;0.90;;;20.20;93.90;;;19.22;100.00;98286.09;4940596;28;20054;-63
2022/08/09 06:57:49;;;;;;;2.50;0.90;;;20.30;94.00;;;19.19;100.00;98288.94;4947446;28;20501;-64
2022/08/09 07:00:30;;;;;;;3.42;1.05;;;20.30;93.30;;;19.37;100.00;98287.72;4940800;28;20211;-67
2022/08/09 07:03:17;;;;;;;4.60;0.93;;;20.40;93.30;;;19.55;100.00;98296.16;4943565;28;20055;-65
2022/08/09 07:05:44;;;;;;;3.63;1.00;;;20.50;93.10;;;19.85;100.00;98289.78;4938943;28;20044;-64
2022/08/09 07:08:33;;;;;;;3.45;0.85;;;20.60;93.20;;;19.98;100.00;98285.34;4940601;28;20051;-65
2022/08/09 07:11:03;;;;;;;4.13;1.13;;;20.80;92.60;;;20.03;100.00;98291.13;4938916;28;20138;-64
2022/08/09 07:13:32;;;;;;;13.40;1.40;;;21.00;92.40;;;19.93;100.00;98289.25;4960038;28;20054;-65
2022/08/09 07:16:19;;;;;;;7.13;1.10;;;21.00;92.30;;;20.20;100.00;98294.38;4940103;28;20058;-65
2022/08/09 07:19:10;;;;;;;4.63;0.98;;;21.10;92.70;;;20.30;100.00;98286.66;4941962;28;20048;-65
2022/08/09 07:21:44;;;;;;;4.18;1.10;;;21.20;92.40;;;20.34;100.00;98286.31;4943165;28;20052;-65
2022/08/09 07:24:29;;;;;;;3.67;1.17;;;21.30;92.00;;;20.54;100.00;98287.53;4956204;28;20051;-65
2022/08/09 07:27:06;;;;;;;4.18;1.42;;;21.50;92.30;;;20.45;100.00;98296.13;4939363;28;20073;-65
2022/08/09 07:29:56;;;;;;;4.20;1.15;;;21.60;91.70;;;20.72;100.00;98295.13;4954919;28;20043;-65
2022/08/09 07:32:28;;;;;;;6.07;1.10;;;21.60;91.60;;;20.73;100.00;98292.34;4958213;28;20076;-65
2022/08/09 07:35:05;;;;;;;4.47;1.00;;;21.70;90.80;;;20.62;100.00;98294.94;4937279;28;20573;-65
2022/08/09 07:37:39;;;;;;;3.20;1.15;;;21.70;90.70;;;20.83;100.00;98290.75;4957888;28;20055;-66
2022/08/09 07:40:14;;;;;;;3.78;1.02;;;21.60;90.70;;;20.80;100.00;98293.63;4938821;29;20595;-65
2022/08/09 07:42:58;;;;;;;4.22;0.80;;;21.70;90.70;;;21.01;100.00;98299.09;4945285;28;20102;-65
2022/08/09 07:45:29;;;;;;;;;;;21.80;90.30;;;20.96;100.00;98295.97;4940264;28;20055;-65
2022/08/09 07:48:09;;;;;;;3.10;1.13;;;21.90;90.60;;;21.37;100.00;98297.31;4936791;28;19933;-65
2022/08/09 07:50:55;;;;;;;7.97;1.27;;;22.00;90.70;;;21.26;100.00;98294.66;4940198;29;20091;-65
2022/08/09 07:53:47;;;;;;;8.60;1.13;;;22.20;90.20;;;21.37;100.00;98299.09;4937398;28;20051;-65
2022/08/09 07:56:37;;;;;;;3.38;1.10;;;22.30;89.60;;;21.51;100.00;98291.88;4943578;28;20384;-65
2022/08/09 07:59:21;;;;;;;4.00;1.20;;;22.40;89.10;;;21.54;100.00;98297.88;4942674;29;20457;-65
2022/08/09 08:02:09;;;;;;;8.73;1.00;;;22.50;89.20;;;21.95;100.00;98294.69;4939348;29;20055;-65
2022/08/09 08:04:42;;;;;;;3.15;1.13;;;22.70;88.80;;;21.95;100.00;98291.22;4942210;28;20070;-65
2022/08/09 08:07:15;;;;;;;6.80;1.13;;;22.70;88.00;;;22.20;100.00;98298.91;4939429;28;20458;-65
2022/08/09 08:10:04;;;;;;;6.22;1.02;;;22.80;88.00;;;22.25;100.00;98293.28;4942517;28;20064;-66
2022/08/09 08:12:39;;;;;;;3.85;1.13;;;22.90;87.10;;;22.47;100.00;98293.25;4944395;28;20140;-65
2022/08/09 08:15:19;;;;;;;4.25;1.10;;;23.00;87.20;;;22.64;100.00;98297.19;4950779;28;20111;-65
2022/08/09 08:17:51;;;;;;;6.68;1.00;;;23.30;86.70;;;22.64;100.00;98305.13;4938309;29;20048;-66
2022/08/09 08:20:26;;;;;;;3.08;1.00;;;23.40;85.60;;;22.92;100.00;98303.75;4936204;29;20063;-65
2022/08/09 08:23:02;;;;;;;5.95;1.00;;;23.60;86.40;;;22.85;100.00;98302.53;4944165;28;20688;-65
2022/08/09 08:25:45;;;;;;;4.60;1.02;;;23.60;84.30;;;23.36;100.00;98309.00;4952417;28;20056;-65
2022/08/09 08:28:15;;;;;;;3.17;0.90;;;23.90;85.10;;;23.14;100.00;98313.41;4949373;28;20489;-66
2022/08/09 08:30:51;;;;;;;5.55;1.10;;;24.10;83.40;;;23.36;100.00;98307.19;4938287;29;20055;-67
2022/08/09 08:33:21;;;;;;;2.33;0.80;;;24.20;82.90;;;23.38;100.00;98307.91;4935444;29;20063;-66
2022/08/09 08:35:50;;;;;;;2.65;0.90;;;24.30;82.20;;;23.57;100.00;98309.84;4942752;28;20055;-66
2022/08/09 08:38:28;;;;;;;5.53;1.02;;;24.40;81.30;;;23.92;100.00;98305.19;4939770;29;20052;-65
2022/08/09 08:40:57;;;;;;;5.57;1.15;;;24.70;82.00;;;23.81;100.00;98314.06;4945557;28;20079;-65
2022/08/09 08:43:25;;;;;;;5.82;1.10;;;24.80;80.70;;;23.86;100.00;98313.69;4939945;29;20074;-66
2022/08/09 08:46:03;;;;;;;4.78;0.77;;;24.80;80.40;;;24.25;100.00;98312.06;4935268;29;20058;-65
2022/08/09 08:48:50;;;;;;;4.78;0.88;;;25.00;80.40;;;24.30;100.00;98309.00;4943166;28;20062;-66
2022/08/09 08:51:23;;;;;;;3.33;1.00;;;25.30;79.70;;;24.84;100.00;98307.78;4939893;29;20126;-64
2022/08/09 08:53:53;;;;;;;4.45;1.20;;;25.50;79.80;;;24.56;100.00;98307.59;4937002;28;20507;-65
2022/08/09 08:56:37;;;;;;;8.30;1.05;;;25.60;78.80;;;25.17;100.00;98303.88;4945614;28;20512;-65
2022/08/09 08:59:09;;;;;;;1.85;0.70;;;26.00;78.90;;;25.32;100.00;98304.31;4936364;29;20587;-68
2022/08/09 09:01:48;;;;;;;2.55;0.82;;;26.00;78.00;;;25.35;100.00;98311.19;4937476;28;20117;-65
2022/08/09 09:04:28;;;;;;;5.63;0.95;;;26.20;77.40;;;25.34;100.00;98302.38;4953000;28;20110;-65
2022/08/09 09:07:09;;;;;;;2.15;0.90;;;26.10;76.50;;;26.26;100.00;98303.56;4933946;29;20052;-65
2022/08/09 09:09:38;;;;;;;2.25;0.80;;;;;;;26.19;97.41;98313.94;4939596;29;20051;-65
2022/08/09 09:12:28;;;;;;;5.88;0.88;;;26.80;75.20;;;26.91;97.20;98301.69;4952384;28;20056;-66
2022/08/09 09:14:59;;;;;;;4.88;1.00;;;27.10;76.40;;;27.17;93.43;98303.59;4954381;28;20506;-65
2022/08/09 09:17:27;;;;;;;5.07;0.98;;;27.20;75.50;;;26.95;92.85;98301.38;4952423;28;20495;-68
2022/08/09 09:20:14;;;;;;;3.97;0.90;;;27.30;74.70;;;27.67;91.32;98305.69;4941097;28;20090;-66
2022/08/09 09:22:57;;;;;;;5.72;0.80;;;27.60;74.80;;;27.47;88.27;98304.19;4952917;28;20043;-66
2022/08/09 09:25:42;;;;;;;2.17;1.05;;;27.70;73.50;;;27.75;87.39;98302.22;4957477;28;20055;-65
2022/08/09 09:28:35;;;;;;;3.97;1.08;;;28.00;73.20;;;28.73;84.86;98300.06;4936844;28;20502;-64
2022/08/09 09:31:23;;;;;;;5.63;0.85;;;28.40;73.60;;;28.44;84.30;98304.94;4940421;29;20067;-66
2022/08/09 09:34:14;;;;;;;6.57;1.23;;;;;;;27.89;86.25;98304.34;4940653;28;20061;-66
2022/08/09 09:36:44;;;;;;;6.30;0.80;;;28.50;71.70;;;29.09;80.12;98293.66;4940251;28;20192;-65
2022/08/09 09:39:27;;;;;;;3.72;0.90;;;28.80;72.30;;;29.43;78.15;98290.00;4938441;29;20047;-65
2022/08/09 09:42:28;;;;;;;3.25;0.90;;;29.00;71.50;;;29.27;80.49;98285.47;4938906;28;20051;-65
2022/08/09 09:45:00;;;;;;;3.40;0.90;;;29.20;71.80;;;29.01;82.06;98290.94;4950319;28;20044;-65
2022/08/09 09:47:29;;;;;;;3.00;0.80;;;29.00;71.60;;;29.57;79.48;98290.13;4939354;28;20133;-65
2022/08/09 09:50:00;;;;;;;3.75;1.05;;;29.10;71.60;;;29.54;80.87;98290.47;4934684;28;20146;-65
2022/08/09 09:52:51;;;;;;;3.85;1.08;;;29.60;71.80;;;29.70;78.15;98296.84;4934518;29;20098;-65
2022/08/09 09:55:22;;;;;;;3.13;0.93;;;29.60;71.20;;;28.96;82.62;98291.44;4943185;28;20076;-65
2022/08/09 09:58:03;;;;;;;1.38;0.77;;;29.50;71.00;;;30.28;78.55;98289.53;4938297;28;20047;-65
2022/08/09 10:00:50;;;;;;;3.90;0.80;;;29.70;71.40;;;30.42;72.83;98286.94;4942600;29;20486;-65
2022/08/09 10:03:46;;;;;;;3.95;0.73;;;29.90;70.20;;;30.57;74.43;98286.22;4943743;28;20062;-65
2022/08/09 10:06:41;;;;;;;6.32;1.25;;;30.00;70.30;;;29.62;79.17;98281.59;4940072;28;20064;-65
2022/08/09 10:09:15;;;;;;;3.28;0.90;;;30.20;70.70;;;29.61;78.22;98293.31;4942953;28;20505;-66
2022/08/09 10:12:01;;;;;;;3.80;0.80;;;29.90;70.00;;;30.33;76.34;98287.97;4938384;29;20043;-66
2022/08/09 10:14:49;;;;;;;2.60;0.75;;;30.10;70.40;;;30.87;72.94;98287.25;4948166;28;20130;-65
2022/08/09 10:17:19;;;;;;;1.60;0.68;;;30.40;69.90;;;31.04;75.18;98277.22;4946857;28;20440;-65
2022/08/09 10:20:28;;;;;;;2.33;0.57;;;30.70;70.20;;;32.31;67.93;98277.38;4939000;28;20057;-65
2022/08/09 10:23:20;;;;;;;3.25;0.82;;;31.10;70.10;;;31.71;67.63;98276.53;4943487;28;20078;-65
2022/08/09 10:25:49;;;;;;;1.63;0.70;;;31.10;68.70;;;32.37;66.52;98273.97;4957484;28;20054;-65
2022/08/09 10:28:39;;;;;;;5.63;0.70;;;31.50;68.90;;;31.85;64.52;98273.00;4941221;28;20632;-65
2022/08/09 10:31:12;;;;;;;5.00;0.80;;;31.40;67.70;;;30.88;69.37;98269.31;4943644;28;20071;-65
2022/08/09 10:33:59;;;;;;;3.38;0.70;;;31.60;67.80;;;31.21;66.90;98270.75;4943513;28;20058;-65
2022/08/09 10:36:53;;;;;;;2.90;0.70;;;31.60;67.30;;;30.97;68.99;98258.34;4939032;29;20591;-65
2022/08/09 10:39:22;;;;;;;4.43;0.73;;;31.20;67.40;;;30.85;69.04;98249.88;4945589;28;20130;-65
2022/08/09 10:41:54;;;;;;;2.38;0.70;;;31.00;68.00;;;30.95;69.70;98255.03;4945683;29;20052;-65
2022/08/09 10:44:25;;;;;;;3.45;0.75;;;31.00;67.80;;;30.22;74.01;98257.06;4955987;28;20101;-65
2022/08/09 10:47:38;;;;;;;1.98;0.77;;;30.70;67.80;;;30.70;70.74;98254.34;4959435;28;20126;-65
2022/08/09 10:51:05;;;;;;;5.35;0.70;;;30.60;68.00;;;31.28;68.28;98244.03;4940689;28;20048;-64
2022/08/09 10:53:58;;;;;;;2.45;0.70;;;31.00;67.80;;;31.04;66.33;98258.47;4957594;28;20446;-64
2022/08/09 10:56:36;;;;;;;3.78;0.70;;;31.00;67.00;;;31.67;66.19;98261.81;4941769;28;20056;-65
2022/08/09 10:59:21;;;;;;;1.77;0.65;;;31.10;67.30;;;32.01;61.31;98255.91;4937936;29;20134;-65